createdAt,value
2023-01-18T00:00:00.541Z,25.04
2023-01-18T00:01:00.488Z,25.05
2023-01-18T00:02:00.507Z,25.05
2023-01-18T00:03:00.801Z,25.05
2023-01-18T00:04:00.487Z,25.05
2023-01-18T00:05:00.520Z,25.04
2023-01-18T00:06:00.460Z,25.02
2023-01-18T00:07:00.457Z,25.05
2023-01-18T00:08:00.464Z,25.04
2023-01-18T00:09:00.440Z,25.05
2023-01-18T00:10:00.437Z,25.05
2023-01-18T00:11:00.423Z,25.05
2023-01-18T00:12:00.411Z,25.07
2023-01-18T00:13:00.590Z,25.08
2023-01-18T00:14:00.393Z,25.08
2023-01-18T00:15:00.399Z,25.07
2023-01-18T00:16:00.395Z,25.05
2023-01-18T00:17:00.395Z,25.07
2023-01-18T00:18:00.368Z,25.08
2023-01-18T00:19:00.377Z,25.05
2023-01-18T00:20:00.358Z,25.04
2023-01-18T00:21:00.348Z,25.07
2023-01-18T00:22:00.337Z,25.07
2023-01-18T00:23:00.546Z,25.07
2023-01-18T00:24:00.310Z,25.08
2023-01-18T00:25:00.294Z,25.07
2023-01-18T00:26:00.293Z,25.10
2023-01-18T00:27:00.289Z,25.08
2023-01-18T00:28:00.280Z,25.08
2023-01-18T00:29:00.284Z,25.07
2023-01-18T00:30:00.274Z,25.08
2023-01-18T00:31:00.271Z,25.07
2023-01-18T00:32:00.302Z,25.07
2023-01-18T00:33:00.809Z,25.08
2023-01-18T00:34:00.247Z,25.05
2023-01-18T00:35:00.240Z,25.08
2023-01-18T00:36:00.220Z,25.08
2023-01-18T00:37:00.226Z,25.08
2023-01-18T00:38:00.202Z,25.10
2023-01-18T00:39:00.197Z,25.07
2023-01-18T00:40:00.178Z,25.08
2023-01-18T00:42:00.181Z,25.08
2023-01-18T01:26:59.740Z,25.05
2023-01-18T01:27:59.712Z,25.05
2023-01-18T01:28:59.708Z,25.05
2023-01-18T01:29:59.721Z,25.07
2023-01-18T01:30:59.709Z,25.04
2023-01-18T01:31:59.708Z,25.05
2023-01-18T01:32:59.855Z,25.05
2023-01-18T01:33:59.681Z,25.04
2023-01-18T01:34:59.686Z,25.05
2023-01-18T01:35:59.640Z,25.05
2023-01-18T01:36:59.621Z,25.07
2023-01-18T01:37:59.611Z,25.04
2023-01-18T01:38:59.613Z,25.04
2023-01-18T01:39:59.597Z,25.02
2023-01-18T01:40:59.609Z,25.01
2023-01-18T01:41:59.598Z,25.04
2023-01-18T01:42:59.827Z,25.01
2023-01-18T01:43:59.559Z,25.04
2023-01-18T01:44:59.559Z,25.04
2023-01-18T01:45:59.628Z,25.04
2023-01-18T01:46:59.540Z,25.02
2023-01-18T01:47:59.540Z,25.04
2023-01-18T01:48:59.533Z,25.02
2023-01-18T01:49:59.513Z,25.04
2023-01-18T01:50:59.500Z,25.02
2023-01-18T01:51:59.490Z,25.04
2023-01-18T01:52:59.663Z,25.04
2023-01-18T01:53:59.496Z,25.04
2023-01-18T01:54:59.467Z,25.04
2023-01-18T01:55:59.473Z,25.04
2023-01-18T01:56:59.450Z,25.07
2023-01-18T01:57:59.442Z,25.04
2023-01-18T01:58:59.433Z,25.05
2023-01-18T01:59:59.419Z,25.02
2023-01-18T02:00:59.532Z,25.05
2023-01-18T02:01:59.461Z,25.05
2023-01-18T02:02:59.707Z,25.05
2023-01-18T02:03:59.410Z,25.04
2023-01-18T02:04:59.388Z,25.02
2023-01-18T02:05:59.374Z,25.04
2023-01-18T02:06:59.350Z,25.05
2023-01-18T02:07:59.351Z,25.04
2023-01-18T02:08:59.357Z,25.05
2023-01-18T02:09:59.333Z,25.04
2023-01-18T02:10:59.326Z,25.05
2023-01-18T02:11:59.325Z,25.05
2023-01-18T02:12:59.752Z,25.07
2023-01-18T02:13:59.304Z,25.07
2023-01-18T02:14:59.300Z,25.05
2023-01-18T02:15:59.303Z,25.10
2023-01-18T02:16:59.319Z,25.05
2023-01-18T02:17:59.268Z,25.08
2023-01-18T02:18:59.269Z,25.04
2023-01-18T02:19:59.243Z,25.08
2023-01-18T02:20:59.245Z,25.07
2023-01-18T02:21:59.249Z,25.08
2023-01-18T02:22:59.618Z,25.05
2023-01-18T02:23:59.201Z,25.11
2023-01-18T02:24:59.187Z,25.10
2023-01-18T02:25:59.175Z,25.10
2023-01-18T02:26:59.190Z,25.07
2023-01-18T02:27:59.181Z,25.07
2023-01-18T02:28:59.159Z,25.05
2023-01-18T02:29:59.176Z,25.08
2023-01-18T02:30:59.169Z,25.08
2023-01-18T02:31:59.151Z,25.05
2023-01-18T02:32:59.495Z,25.07
2023-01-18T02:33:59.124Z,25.05
2023-01-18T02:34:59.126Z,25.07
2023-01-18T02:35:59.109Z,25.08
2023-01-18T02:36:59.115Z,25.07
2023-01-18T02:37:59.099Z,25.08
2023-01-18T02:38:59.097Z,25.08
2023-01-18T02:39:59.092Z,25.10
2023-01-18T02:40:59.102Z,25.08
2023-01-18T02:41:59.064Z,25.08
2023-01-18T02:42:59.442Z,25.08
2023-01-18T02:43:59.048Z,25.07
2023-01-18T02:44:59.043Z,25.07
2023-01-18T02:45:59.085Z,25.08
2023-01-18T02:46:59.033Z,25.04
2023-01-18T02:47:59.011Z,25.08
2023-01-18T02:48:59.007Z,25.08
2023-01-18T02:49:58.993Z,25.08
2023-01-18T02:50:58.991Z,25.08
2023-01-18T02:51:58.969Z,25.07
2023-01-18T02:52:59.299Z,25.07
2023-01-18T02:53:58.954Z,25.08
2023-01-18T02:54:58.994Z,25.05
2023-01-18T02:55:58.932Z,25.05
2023-01-18T02:56:58.939Z,25.08
2023-01-18T02:57:58.906Z,25.05
2023-01-18T02:58:58.895Z,25.07
2023-01-18T07:05:57.310Z,25.95
2023-01-18T07:08:57.218Z,26.01
2023-01-18T07:26:56.813Z,26.39
2023-01-18T07:29:56.755Z,26.36
2023-01-18T07:30:56.737Z,26.36
2023-01-18T07:31:56.768Z,26.36
2023-01-18T07:32:57.127Z,26.33
2023-01-18T07:33:56.671Z,26.33
2023-01-18T07:34:59.350Z,26.32
2023-01-18T07:35:56.657Z,26.33
2023-01-18T07:36:56.612Z,26.31
2023-01-18T07:37:56.585Z,26.32
2023-01-18T07:38:56.559Z,26.31
2023-01-18T07:39:56.547Z,26.31
2023-01-18T07:40:56.512Z,26.32
2023-01-18T07:41:56.507Z,26.36
2023-01-18T07:42:57.040Z,26.33
2023-01-18T07:43:56.454Z,26.38
2023-01-18T07:44:56.434Z,26.40
2023-01-18T07:45:56.453Z,26.40
2023-01-18T07:46:56.398Z,26.44
2023-01-18T07:47:56.368Z,26.36
2023-01-18T07:48:56.357Z,26.38
2023-01-18T07:49:56.324Z,26.36
2023-01-18T07:50:56.300Z,26.39
2023-01-18T07:51:56.272Z,26.42
2023-01-18T07:52:56.750Z,26.42
2023-01-18T07:53:56.240Z,26.40
2023-01-18T07:54:56.202Z,26.39
2023-01-18T07:55:56.177Z,26.40
2023-01-18T07:56:56.168Z,26.42
2023-01-18T07:57:56.134Z,26.42
2023-01-18T07:58:56.110Z,26.43
2023-01-18T07:59:56.067Z,26.43
2023-01-18T08:00:56.095Z,26.42
2023-01-18T08:01:56.070Z,26.43
2023-01-18T08:02:58.847Z,26.44
2023-01-18T08:03:56.008Z,26.39
2023-01-18T08:04:55.931Z,26.44
2023-01-18T08:05:55.906Z,26.42
2023-01-18T08:06:55.874Z,26.42
2023-01-18T08:07:55.857Z,26.42
2023-01-18T08:08:55.832Z,26.40
2023-01-18T08:09:55.824Z,26.39
2023-01-18T08:10:55.784Z,26.42
2023-01-18T08:11:55.759Z,26.40
2023-01-18T08:12:56.105Z,26.39
2023-01-18T08:13:55.698Z,26.38
2023-01-18T08:14:55.680Z,26.39
2023-01-18T08:15:55.799Z,26.38
2023-01-18T08:16:55.656Z,26.38
2023-01-18T08:17:55.624Z,26.39
2023-01-18T08:18:55.601Z,26.40
2023-01-18T08:19:55.580Z,26.39
2023-01-18T08:20:55.564Z,26.42
2023-01-18T08:21:55.528Z,26.38
2023-01-18T08:22:55.755Z,26.40
2023-01-18T08:23:55.496Z,26.40
2023-01-18T08:24:55.498Z,26.40
2023-01-18T08:25:55.465Z,26.42
2023-01-18T08:26:55.454Z,26.42
2023-01-18T10:26:53.137Z,26.04
2023-01-18T10:27:53.113Z,26.06
2023-01-18T10:28:53.086Z,26.02
2023-01-18T10:29:53.077Z,26.02
2023-01-18T10:30:53.046Z,26.02
2023-01-18T10:31:53.065Z,26.02
2023-01-18T10:32:53.002Z,26.01
2023-01-18T10:33:52.968Z,25.99
2023-01-18T10:34:52.997Z,25.99
2023-01-18T10:35:52.942Z,26.02
2023-01-18T10:36:52.913Z,26.04
2023-01-18T10:37:52.911Z,26.02
2023-01-18T10:38:52.897Z,26.01
2023-01-18T10:39:52.850Z,25.99
2023-01-18T10:40:52.840Z,26.01
2023-01-18T10:41:52.814Z,26.01
2023-01-18T10:42:52.798Z,25.99
2023-01-18T10:43:52.787Z,26.02
2023-01-18T10:44:52.752Z,26.05
2023-01-18T10:45:52.773Z,26.06
2023-01-18T10:46:52.722Z,26.08
2023-01-18T10:47:52.687Z,26.12
2023-01-18T10:48:52.675Z,26.12
2023-01-18T10:49:52.657Z,26.16
2023-01-18T10:50:53.556Z,26.15
2023-01-18T10:51:52.586Z,26.14
2023-01-18T10:52:52.560Z,26.16
2023-01-18T10:53:52.539Z,26.18
2023-01-18T10:54:52.529Z,26.19
2023-01-18T10:55:52.495Z,26.22
2023-01-18T10:56:52.488Z,26.16
2023-01-18T10:57:52.445Z,26.22
2023-01-18T10:58:52.445Z,26.25
2023-01-18T10:59:52.400Z,26.28
2023-01-18T11:00:52.462Z,26.33
2023-01-18T11:01:52.505Z,26.35
2023-01-18T11:02:52.373Z,26.36
2023-01-18T11:03:52.314Z,26.36
2023-01-18T11:04:52.275Z,26.40
2023-01-18T11:05:52.240Z,26.42
2023-01-18T11:06:52.216Z,26.40
2023-01-18T11:07:52.192Z,26.46
2023-01-18T11:08:52.176Z,26.47
2023-01-18T11:09:52.141Z,26.47
2023-01-18T11:10:52.125Z,26.49
2023-01-18T11:11:52.095Z,26.51
2023-01-18T11:12:52.088Z,26.49
2023-01-18T11:13:52.015Z,26.51
2023-01-18T11:14:51.983Z,26.51
2023-01-18T11:15:51.953Z,26.51
2023-01-18T11:16:51.940Z,26.53
2023-01-18T11:17:51.947Z,26.56
2023-01-18T11:18:52.872Z,26.57
2023-01-18T11:19:51.843Z,26.54
2023-01-18T11:20:51.811Z,26.57
2023-01-18T11:21:52.146Z,26.56
2023-01-18T11:22:51.757Z,26.56
2023-01-18T11:23:51.724Z,26.57
2023-01-18T11:24:51.693Z,26.56
2023-01-18T11:25:51.656Z,26.57
2023-01-18T11:26:51.669Z,26.57
2023-01-18T11:27:51.612Z,26.59
2023-01-18T11:28:51.599Z,26.59
2023-01-18T11:29:51.560Z,26.57
2023-01-18T11:30:51.521Z,26.59
2023-01-18T11:31:51.524Z,26.60
2023-01-18T11:32:51.463Z,26.60
2023-01-18T11:33:51.427Z,26.60
2023-01-18T11:34:51.408Z,26.60
2023-01-18T11:35:51.367Z,26.63
2023-01-18T11:36:51.336Z,26.60
2023-01-18T11:37:51.302Z,26.61
2023-01-18T11:38:51.270Z,26.59
2023-01-18T11:39:51.248Z,26.59
2023-01-18T11:40:51.210Z,26.60
2023-01-18T11:41:51.181Z,26.56
2023-01-18T11:42:51.145Z,26.57
2023-01-18T11:43:51.112Z,26.57
2023-01-18T11:44:51.090Z,26.56
2023-01-18T11:45:51.099Z,26.59
2023-01-18T11:46:51.187Z,26.56
2023-01-18T11:47:50.993Z,26.59
2023-01-18T11:48:50.982Z,26.56
2023-01-18T11:49:50.952Z,26.57
2023-01-18T11:50:50.907Z,26.53
2023-01-18T11:51:50.885Z,26.53
2023-01-18T11:52:50.855Z,26.54
2023-01-18T11:53:50.849Z,26.53
2023-01-18T11:54:50.835Z,26.53
2023-01-18T11:55:50.800Z,26.49
2023-01-18T11:56:50.776Z,26.49
2023-01-18T11:57:50.744Z,26.46
2023-01-18T11:58:50.721Z,26.47
2023-01-18T11:59:50.738Z,26.49
2023-01-18T12:00:50.722Z,26.47
2023-01-18T12:01:50.721Z,26.47
2023-01-18T12:02:50.634Z,26.47
2023-01-18T12:03:50.626Z,26.49
2023-01-18T12:04:50.599Z,26.44
2023-01-18T12:05:50.570Z,26.46
2023-01-18T12:06:50.536Z,26.44
2023-01-18T12:07:50.522Z,26.44
2023-01-18T12:08:50.497Z,26.42
2023-01-18T12:09:50.479Z,26.40
2023-01-18T12:10:50.450Z,26.39
2023-01-18T12:11:50.442Z,26.39
2023-01-18T12:12:50.409Z,26.40
2023-01-18T12:13:50.375Z,26.39
2023-01-18T12:14:50.351Z,26.39
2023-01-18T12:15:50.333Z,26.39
2023-01-18T12:16:50.367Z,26.35
2023-01-18T12:17:54.619Z,26.35
2023-01-18T12:18:51.259Z,26.35
2023-01-18T12:19:50.247Z,26.36
2023-01-18T12:20:50.227Z,26.35
2023-01-18T12:21:50.187Z,26.36
2023-01-18T12:22:50.159Z,26.36
2023-01-18T12:23:50.141Z,26.32
2023-01-18T12:24:50.150Z,26.33
2023-01-18T12:25:53.815Z,26.38
2023-01-18T12:26:51.057Z,26.32
2023-01-18T12:27:50.048Z,26.36
2023-01-18T12:28:50.025Z,26.42
2023-01-18T12:29:50.032Z,26.42
2023-01-18T12:30:50.119Z,26.44
2023-01-18T12:31:50.220Z,26.46
2023-01-18T12:32:50.529Z,26.49
2023-01-18T12:33:49.937Z,26.51
2023-01-18T12:34:49.889Z,26.61
2023-01-18T12:35:49.865Z,26.59
2023-01-18T12:36:49.838Z,26.60
2023-01-18T12:37:49.823Z,26.59
2023-01-18T12:38:49.797Z,26.59
2023-01-18T12:39:49.771Z,26.54
2023-01-18T12:40:49.753Z,26.54
2023-01-18T12:41:49.715Z,26.57
2023-01-18T12:42:49.701Z,26.53
2023-01-18T12:43:49.679Z,26.51
2023-01-18T12:44:49.666Z,26.51
2023-01-18T12:45:49.666Z,26.49
2023-01-18T12:46:49.612Z,26.47
2023-01-18T12:47:49.601Z,26.49
2023-01-18T12:48:49.576Z,26.46
2023-01-18T12:49:49.575Z,26.44
2023-01-18T12:50:49.531Z,26.42
2023-01-18T12:51:49.503Z,26.43
2023-01-18T12:52:49.481Z,26.43
2023-01-18T12:53:49.473Z,26.43
2023-01-18T12:54:49.425Z,26.42
2023-01-18T12:55:49.421Z,26.42
2023-01-18T12:56:49.378Z,26.39
2023-01-18T12:57:49.365Z,26.39
2023-01-18T12:58:49.346Z,26.40
2023-01-18T12:59:49.316Z,26.40
2023-01-18T13:00:49.313Z,26.43
2023-01-18T13:01:49.274Z,26.40
2023-01-18T13:02:49.299Z,26.40
2023-01-18T13:03:49.229Z,26.39
2023-01-18T13:04:49.216Z,26.40
2023-01-18T13:05:49.202Z,26.39
2023-01-18T13:06:49.172Z,26.40
2023-01-18T13:07:49.169Z,26.39
2023-01-18T13:08:49.138Z,26.39
2023-01-18T13:09:49.168Z,26.38
2023-01-18T13:10:49.099Z,26.38
2023-01-18T13:11:49.071Z,26.38
2023-01-18T13:12:49.051Z,26.36
2023-01-18T13:13:49.038Z,26.35
2023-01-18T13:14:49.009Z,26.35
2023-01-18T13:15:48.991Z,26.35
2023-01-18T13:16:48.952Z,26.33
2023-01-18T13:17:48.940Z,26.36
2023-01-18T13:18:48.917Z,26.35
2023-01-18T13:20:48.879Z,26.39
2023-01-18T13:21:48.856Z,26.42
2023-01-18T13:22:48.870Z,26.43
2023-01-18T13:23:49.029Z,26.42
2023-01-18T13:24:48.838Z,26.47
2023-01-18T13:25:48.785Z,26.50
2023-01-18T13:26:48.750Z,26.46
2023-01-18T13:27:48.724Z,26.46
2023-01-18T13:28:48.698Z,26.44
2023-01-18T13:29:48.679Z,26.49
2023-01-18T13:30:48.691Z,26.46
2023-01-18T13:31:48.629Z,26.50
2023-01-18T13:32:48.605Z,26.53
2023-01-18T13:33:48.611Z,26.57
2023-01-18T13:34:49.007Z,26.60
2023-01-18T13:35:48.529Z,26.60
2023-01-18T13:36:48.530Z,26.59
2023-01-18T13:37:48.496Z,26.57
2023-01-18T13:38:48.453Z,26.57
2023-01-18T13:39:48.540Z,26.59
2023-01-18T13:40:48.406Z,26.57
2023-01-18T13:41:48.381Z,26.59
2023-01-18T13:42:48.335Z,26.61
2023-01-18T13:43:48.304Z,26.63
2023-01-18T13:44:48.271Z,26.66
2023-01-18T13:45:48.242Z,26.64
2023-01-18T13:46:48.219Z,26.68
2023-01-18T13:47:48.202Z,26.67
2023-01-18T13:48:48.261Z,26.70
2023-01-18T13:49:48.133Z,26.73
2023-01-18T13:50:48.115Z,26.75
2023-01-18T13:51:48.091Z,26.80
2023-01-18T13:52:48.046Z,26.83
2023-01-18T13:53:48.031Z,26.88
2023-01-18T13:54:47.986Z,26.88
2023-01-18T13:55:48.000Z,26.91
2023-01-18T13:56:47.955Z,26.94
2023-01-18T13:57:47.914Z,26.95
2023-01-18T13:58:47.885Z,27.01
2023-01-18T13:59:47.862Z,27.03
2023-01-18T14:00:47.853Z,27.05
2023-01-18T14:01:47.833Z,27.08
2023-01-18T14:02:47.787Z,27.11
2023-01-18T14:03:47.780Z,27.13
2023-01-18T14:04:47.727Z,27.15
2023-01-18T14:05:47.711Z,27.12
2023-01-18T14:06:47.695Z,27.18
2023-01-18T14:07:47.657Z,27.18
2023-01-18T14:08:47.637Z,27.15
2023-01-18T14:09:47.604Z,27.16
2023-01-18T14:10:47.576Z,27.15
2023-01-18T14:11:47.562Z,27.12
2023-01-18T14:12:47.667Z,27.09
2023-01-18T14:13:47.515Z,27.03
2023-01-18T14:14:47.456Z,27.09
2023-01-18T14:15:47.456Z,27.11
2023-01-18T14:16:47.400Z,27.05
2023-01-18T14:17:58.193Z,27.16
2023-01-18T14:18:48.349Z,27.28
2023-01-18T14:19:47.376Z,27.30
2023-01-18T14:20:47.291Z,27.32
2023-01-18T14:21:47.261Z,27.25
2023-01-18T14:22:47.213Z,27.25
2023-01-18T14:23:47.187Z,27.25
2023-01-18T14:24:47.161Z,27.25
2023-01-18T14:25:47.110Z,27.25
2023-01-18T14:26:47.084Z,27.29
2023-01-18T14:27:47.051Z,27.28
2023-01-18T14:28:47.017Z,27.26
2023-01-18T14:29:46.985Z,27.28
2023-01-18T14:30:46.939Z,27.28
2023-01-18T14:31:46.920Z,27.26
2023-01-18T14:32:46.910Z,27.26
2023-01-18T14:33:46.887Z,27.26
2023-01-18T14:34:46.823Z,27.21
2023-01-18T14:35:46.832Z,27.25
2023-01-18T14:36:46.759Z,27.24
2023-01-18T14:37:46.741Z,27.25
2023-01-18T14:38:46.712Z,27.26
2023-01-18T14:39:46.676Z,27.28
2023-01-18T14:40:46.658Z,27.30
2023-01-18T14:41:46.621Z,27.26
2023-01-18T14:42:46.593Z,27.29
2023-01-18T14:43:46.561Z,27.30
2023-01-18T14:44:57.765Z,27.33
2023-01-18T14:45:47.509Z,27.35
2023-01-18T14:46:49.133Z,27.33
2023-01-18T14:47:46.473Z,27.32
2023-01-18T14:48:46.431Z,27.32
2023-01-18T14:49:46.403Z,27.30
2023-01-18T14:50:46.403Z,27.35
2023-01-18T14:51:46.358Z,27.36
2023-01-18T14:52:46.338Z,27.42
2023-01-18T14:53:46.304Z,27.43
2023-01-18T14:54:46.275Z,27.46
2023-01-18T14:55:46.337Z,27.50
2023-01-18T14:56:46.244Z,27.50
2023-01-18T14:57:46.242Z,27.54
2023-01-18T14:58:46.172Z,27.56
2023-01-18T14:59:46.146Z,27.54
2023-01-18T15:00:46.268Z,27.47
2023-01-18T15:01:46.191Z,27.53
2023-01-18T15:02:46.118Z,27.57
2023-01-18T15:03:46.043Z,27.56
2023-01-18T15:04:46.009Z,27.58
2023-01-18T15:05:45.965Z,27.60
2023-01-18T15:06:45.935Z,27.61
2023-01-18T15:07:45.932Z,27.64
2023-01-18T15:08:45.865Z,27.64
2023-01-18T15:09:45.842Z,27.64
2023-01-18T15:10:45.793Z,27.63
2023-01-18T15:11:45.760Z,27.60
2023-01-18T15:12:45.748Z,27.57
2023-01-18T15:13:45.690Z,27.54
2023-01-18T15:14:45.664Z,27.50
2023-01-18T15:15:45.637Z,27.47
2023-01-18T15:16:45.598Z,27.39
2023-01-18T15:17:45.589Z,27.35
2023-01-18T15:18:45.548Z,27.29
2023-01-18T15:19:45.532Z,27.26
2023-01-18T15:20:45.480Z,27.24
2023-01-18T15:21:45.466Z,27.21
2023-01-18T15:22:45.442Z,27.15
2023-01-18T15:23:45.434Z,27.12
2023-01-18T15:24:45.383Z,27.12
2023-01-18T15:25:45.370Z,27.05
2023-01-18T15:26:45.351Z,27.05
2023-01-18T15:27:45.321Z,27.01
2023-01-18T15:28:45.306Z,27.01
2023-01-18T15:29:46.329Z,26.98
2023-01-18T15:30:45.233Z,26.94
2023-01-18T15:31:45.274Z,26.94
2023-01-18T15:32:45.185Z,26.90
2023-01-18T15:33:45.180Z,26.90
2023-01-18T15:34:45.148Z,26.88
2023-01-18T15:35:47.888Z,26.87
2023-01-18T15:36:45.098Z,26.85
2023-01-18T15:37:45.083Z,26.84
2023-01-18T15:38:45.050Z,26.83
2023-01-18T15:39:45.034Z,26.80
2023-01-18T15:40:45.013Z,26.80
2023-01-18T15:41:45.011Z,26.77
2023-01-18T15:42:44.973Z,26.77
2023-01-18T15:43:44.947Z,26.74
2023-01-18T15:44:44.937Z,26.74
2023-01-18T15:45:44.966Z,26.74
2023-01-18T15:46:44.887Z,26.68
2023-01-18T15:47:44.855Z,26.70
2023-01-18T15:48:44.822Z,26.70
2023-01-18T15:49:44.824Z,26.70
2023-01-18T15:50:44.771Z,26.67
2023-01-18T15:51:44.773Z,26.67
2023-01-18T15:52:45.400Z,26.66
2023-01-18T15:53:44.710Z,26.66
2023-01-18T15:54:44.688Z,26.64
2023-01-18T15:55:44.654Z,26.63
2023-01-18T15:56:44.628Z,26.63
2023-01-18T15:57:44.594Z,26.63
2023-01-18T15:58:44.583Z,26.60
2023-01-18T15:59:44.573Z,26.60
2023-01-18T16:00:44.601Z,26.59
2023-01-18T16:01:44.686Z,26.60
2023-01-18T16:02:44.505Z,26.60
2023-01-18T16:03:44.459Z,26.60
2023-01-18T16:04:44.437Z,26.57
2023-01-18T16:05:44.417Z,26.57
2023-01-18T16:06:44.392Z,26.54
2023-01-18T16:07:44.392Z,26.54
2023-01-18T16:08:44.375Z,26.53
2023-01-18T16:09:44.342Z,26.51
2023-01-18T16:10:44.324Z,26.51
2023-01-18T16:11:44.307Z,26.50
2023-01-18T16:12:44.287Z,26.49
2023-01-18T16:13:44.269Z,26.46
2023-01-18T16:14:44.235Z,26.47
2023-01-18T16:15:44.241Z,26.46
2023-01-18T16:16:44.354Z,26.47
2023-01-18T16:17:44.219Z,26.43
2023-01-18T16:18:44.184Z,26.44
2023-01-18T16:19:44.181Z,26.43
2023-01-18T16:20:44.144Z,26.43
2023-01-18T16:21:44.122Z,26.39
2023-01-18T16:22:44.108Z,26.40
2023-01-18T16:23:44.094Z,26.39
2023-01-18T16:24:44.077Z,26.39
2023-01-18T16:25:44.060Z,26.38
2023-01-18T16:26:44.072Z,26.36
2023-01-18T16:27:44.015Z,26.38
2023-01-18T16:28:44.003Z,26.32
2023-01-18T16:29:44.919Z,26.33
2023-01-18T16:30:44.021Z,26.31
2023-01-18T16:31:43.943Z,26.31
2023-01-18T16:32:43.925Z,26.32
2023-01-18T16:33:43.909Z,26.32
2023-01-18T16:34:43.882Z,26.31
2023-01-18T16:35:43.884Z,26.29
2023-01-18T16:36:43.871Z,26.29
2023-01-18T16:37:43.835Z,26.28
2023-01-18T16:38:43.847Z,26.28
2023-01-18T16:39:43.810Z,26.28
2023-01-18T16:40:44.953Z,26.25
2023-01-18T16:41:43.763Z,26.26
2023-01-18T16:42:43.745Z,26.26
2023-01-18T16:43:43.739Z,26.23
2023-01-18T16:44:43.720Z,26.23
2023-01-18T16:45:43.729Z,26.22
2023-01-18T16:46:44.978Z,26.23
2023-01-18T16:47:43.671Z,26.21
2023-01-18T16:48:43.651Z,26.21
2023-01-18T16:49:43.619Z,26.21
2023-01-18T16:50:43.625Z,26.19
2023-01-18T16:51:43.580Z,26.19
2023-01-18T16:52:43.559Z,26.18
2023-01-18T16:53:43.549Z,26.18
2023-01-18T16:54:43.529Z,26.16
2023-01-18T16:55:43.498Z,26.18
2023-01-18T16:56:43.475Z,26.16
2023-01-18T16:57:43.456Z,26.15
2023-01-18T16:58:43.415Z,26.15
2023-01-18T16:59:43.400Z,26.15
2023-01-18T17:00:43.385Z,26.14
2023-01-18T17:01:43.473Z,26.14
2023-01-18T17:02:43.395Z,26.12
2023-01-18T17:03:43.311Z,26.12
2023-01-18T17:04:43.289Z,26.12
2023-01-18T17:05:43.280Z,26.12
2023-01-18T17:06:43.267Z,26.11
2023-01-18T17:07:43.240Z,26.09
2023-01-18T17:08:43.207Z,26.09
2023-01-18T17:09:48.783Z,26.11
2023-01-18T17:10:44.167Z,26.08
2023-01-18T17:11:43.148Z,26.08
2023-01-18T17:12:43.143Z,26.09
2023-01-18T17:13:43.122Z,26.09
2023-01-18T17:14:43.110Z,26.08
2023-01-18T17:15:43.093Z,26.09
2023-01-18T17:16:43.134Z,26.06
2023-01-18T17:17:43.081Z,26.06
2023-01-18T17:18:43.024Z,26.06
2023-01-18T17:19:43.029Z,26.06
2023-01-18T17:20:42.999Z,26.05
2023-01-18T17:21:42.993Z,26.05
2023-01-18T17:22:43.025Z,26.04
2023-01-18T17:23:42.960Z,26.05
2023-01-18T17:24:43.011Z,26.04
2023-01-18T17:25:42.939Z,26.02
2023-01-18T17:26:42.932Z,25.98
2023-01-18T17:27:42.903Z,26.02
2023-01-18T17:28:42.898Z,26.01
2023-01-18T17:29:42.889Z,26.02
2023-01-18T17:30:42.915Z,26.02
2023-01-18T17:31:51.706Z,25.99
2023-01-18T17:32:43.837Z,25.98
2023-01-18T17:33:42.824Z,25.99
2023-01-18T17:34:42.808Z,25.95
2023-01-18T17:35:42.798Z,25.98
2023-01-18T17:36:42.773Z,25.98
2023-01-18T17:37:42.767Z,25.99
2023-01-18T17:38:42.735Z,25.97
2023-01-18T17:39:50.136Z,25.97
2023-01-18T17:40:44.434Z,25.95
2023-01-18T17:41:42.668Z,25.97
2023-01-18T17:42:42.652Z,25.94
2023-01-18T17:43:42.620Z,25.95
2023-01-18T17:44:42.611Z,25.95
2023-01-18T17:45:48.405Z,25.95
2023-01-18T17:46:42.679Z,25.95
2023-01-18T17:47:42.552Z,25.94
2023-01-18T17:48:42.527Z,25.92
2023-01-18T17:49:42.503Z,25.92
2023-01-18T17:50:42.507Z,25.91
2023-01-18T17:51:42.462Z,25.95
2023-01-18T17:52:42.445Z,25.91
2023-01-18T17:53:42.502Z,25.91
2023-01-18T17:54:42.417Z,25.92
2023-01-18T17:55:42.387Z,25.88
2023-01-18T17:56:42.367Z,25.89
2023-01-18T17:57:42.341Z,25.92
2023-01-18T17:58:42.339Z,25.91
2023-01-18T17:59:42.330Z,25.91
2023-01-18T18:00:42.295Z,25.89
2023-01-18T18:01:42.409Z,25.91
2023-01-18T18:02:42.319Z,25.89
2023-01-18T18:03:42.237Z,25.89
2023-01-18T18:04:42.243Z,25.88
2023-01-18T18:05:42.206Z,25.88
2023-01-18T18:06:49.705Z,25.88
2023-01-18T18:07:43.183Z,25.87
2023-01-18T18:08:42.155Z,25.89
2023-01-18T18:09:42.122Z,25.87
2023-01-18T18:10:42.113Z,25.88
2023-01-18T18:11:42.092Z,25.84
2023-01-18T18:12:42.104Z,25.85
2023-01-18T18:13:42.066Z,25.88
2023-01-18T18:14:42.040Z,25.87
2023-01-18T18:15:42.060Z,25.84
2023-01-18T18:16:43.749Z,25.84
2023-01-18T18:17:41.984Z,25.84
2023-01-18T18:18:41.958Z,25.84
2023-01-18T18:19:41.958Z,25.87
2023-01-18T18:20:41.941Z,25.84
2023-01-18T18:21:41.911Z,25.83
2023-01-18T18:22:41.903Z,25.83
2023-01-18T18:23:41.879Z,25.81
2023-01-18T18:24:41.903Z,25.85
2023-01-18T18:25:41.855Z,25.83
2023-01-18T18:26:41.835Z,25.79
2023-01-18T18:27:46.151Z,25.81
2023-01-18T18:28:42.818Z,25.83
2023-01-18T18:29:41.787Z,25.81
2023-01-18T18:30:41.761Z,25.81
2023-01-18T18:31:41.763Z,25.83
2023-01-18T18:32:41.758Z,25.80
2023-01-18T18:33:41.705Z,25.80
2023-01-18T18:34:41.699Z,25.79
2023-01-18T18:35:41.689Z,25.79
2023-01-18T18:36:41.676Z,25.77
2023-01-18T18:37:41.674Z,25.77
2023-01-18T18:38:41.656Z,25.79
2023-01-18T18:39:41.616Z,25.77
2023-01-18T18:40:41.589Z,25.79
2023-01-18T18:41:43.900Z,25.79
2023-01-18T18:42:41.962Z,25.79
2023-01-18T18:43:41.533Z,25.77
2023-01-18T18:44:41.510Z,25.77
2023-01-18T18:45:41.525Z,25.76
2023-01-18T18:46:41.506Z,25.77
2023-01-18T18:47:41.460Z,25.79
2023-01-18T18:48:41.444Z,25.76
2023-01-18T18:49:41.432Z,25.76
2023-01-18T18:50:41.411Z,25.77
2023-01-18T18:51:41.409Z,25.77
2023-01-18T18:52:41.369Z,25.79
2023-01-18T18:53:41.353Z,25.79
2023-01-18T18:54:41.345Z,25.77
2023-01-18T18:55:41.334Z,25.80
2023-01-18T18:56:41.304Z,25.79
2023-01-18T18:57:41.337Z,25.79
2023-01-18T18:58:41.271Z,25.79
2023-01-18T18:59:41.239Z,25.79
2023-01-18T19:00:41.234Z,25.77
2023-01-18T19:01:41.281Z,25.80
2023-01-18T19:02:41.249Z,25.79
2023-01-18T19:03:41.164Z,25.79
2023-01-18T19:04:41.154Z,25.77
2023-01-18T19:05:41.134Z,25.79
2023-01-18T19:06:41.128Z,25.80
2023-01-18T19:07:41.088Z,25.77
2023-01-18T19:08:41.071Z,25.79
2023-01-18T19:09:41.053Z,25.77
2023-01-18T19:10:41.043Z,25.77
2023-01-18T19:11:50.435Z,25.77
2023-01-18T19:12:42.025Z,25.76
2023-01-18T19:13:40.974Z,25.76
2023-01-18T19:14:40.959Z,25.77
2023-01-18T19:15:40.957Z,25.79
2023-01-18T19:16:40.977Z,25.79
2023-01-18T19:17:40.915Z,25.79
2023-01-18T19:18:40.899Z,25.77
2023-01-18T19:19:40.869Z,25.76
2023-01-18T19:20:40.854Z,25.79
2023-01-18T19:21:40.852Z,25.77
2023-01-18T19:22:40.800Z,25.76
2023-01-18T19:23:40.798Z,25.76
2023-01-18T19:24:40.793Z,25.79
2023-01-18T19:25:40.778Z,25.76
2023-01-18T19:26:40.721Z,25.74
2023-01-18T19:27:40.720Z,25.76
2023-01-18T19:28:40.708Z,25.77
2023-01-18T19:29:40.657Z,25.77
2023-01-18T19:30:40.621Z,25.77
2023-01-18T19:31:40.688Z,25.74
2023-01-18T19:32:40.575Z,25.74
2023-01-18T19:33:40.551Z,25.73
2023-01-18T19:34:40.540Z,25.77
2023-01-18T19:35:40.925Z,25.76
2023-01-18T19:36:40.476Z,25.74
2023-01-18T19:37:40.452Z,25.74
2023-01-18T19:38:45.696Z,25.76
2023-01-18T19:39:41.441Z,25.74
2023-01-18T19:40:40.405Z,25.74
2023-01-18T19:41:40.381Z,25.73
2023-01-18T19:42:40.382Z,25.73
2023-01-18T19:43:40.329Z,25.73
2023-01-18T19:44:40.322Z,25.73
2023-01-18T19:45:40.322Z,25.73
2023-01-18T19:46:40.304Z,25.73
2023-01-18T19:47:40.266Z,25.71
2023-01-18T19:48:40.288Z,25.74
2023-01-18T19:49:40.218Z,25.71
2023-01-18T19:50:40.200Z,25.74
2023-01-18T19:51:40.187Z,25.73
2023-01-18T19:52:40.172Z,25.71
2023-01-18T19:53:40.152Z,25.70
2023-01-18T19:54:40.151Z,25.71
2023-01-18T19:55:40.113Z,25.71
2023-01-18T19:56:40.114Z,25.70
2023-01-18T19:57:40.083Z,25.70
2023-01-18T19:58:40.065Z,25.70
2023-01-18T19:59:40.059Z,25.69
2023-01-18T20:00:40.131Z,25.70
2023-01-18T20:01:40.123Z,25.69
2023-01-18T20:02:40.099Z,25.70
2023-01-18T20:03:39.986Z,25.70